Time;durP1;ratioP1;P1;durP2;ratioP2;P2;SDS_P1;SDS_P2;PMS_P1;PMS_P2;Temp;Humidity;BMP_temperature;BMP_pressure;BME280_temperature;BME280_humidity;BME280_pressure;Samples;Min_cycle;Max_cycle;Signal;HPM_P1;HPM_P2
2022/12/17 13:07:29;;;;;;;23.15;6.95;;;-2.70;99.90;;;-2.47;nan;101778.97;5031242;28;20222;-64
2022/12/17 13:09:58;;;;;;;29.10;13.13;;;-2.50;99.90;;;-2.70;nan;101776.41;5044185;28;20264;-65
2022/12/17 13:12:46;;;;;;;30.25;13.70;;;-2.60;99.90;;;-2.78;nan;101780.66;5032486;28;20580;-65
2022/12/17 13:15:30;;;;;;;28.45;10.98;;;-2.60;99.90;;;-2.77;nan;101768.75;5002846;28;20215;-65
2022/12/17 13:18:34;;;;;;;14.02;6.95;;;-2.60;99.90;;;-3.04;nan;101768.69;5014793;28;20740;-60
2022/12/17 13:21:25;;;;;;;27.48;12.65;;;-2.70;99.90;;;-3.13;nan;101780.59;5041580;28;20225;-61
2022/12/17 13:23:52;;;;;;;16.70;7.38;;;-2.80;99.90;;;-2.93;nan;101772.13;5033136;28;20208;-65
2022/12/17 13:26:44;;;;;;;0.30;0.30;;;-2.80;99.90;;;-2.80;nan;101772.16;5031357;28;20229;-66
2022/12/17 13:29:28;;;;;;;6.70;3.95;;;-2.80;99.90;;;-2.70;nan;101775.53;5043126;28;20218;-65
2022/12/17 13:32:02;;;;;;;9.02;5.60;;;-2.70;99.90;;;-2.76;nan;101775.53;5030707;28;20210;-66
2022/12/17 13:34:57;;;;;;;23.50;10.38;;;-2.80;99.90;;;-2.73;nan;101767.91;5014248;28;20221;-66
2022/12/17 13:37:33;;;;;;;16.13;7.68;;;-2.70;99.90;;;-2.71;nan;101764.50;5032000;28;20214;-65
2022/12/17 13:40:45;;;;;;;24.15;9.30;;;-2.60;99.90;;;-2.84;nan;101774.69;5040941;28;20609;-65
2022/12/17 13:43:19;;;;;;;14.43;5.57;;;-2.70;99.90;;;-2.66;nan;101772.16;5032555;28;20214;-66
2022/12/17 13:45:46;;;;;;;16.90;7.43;;;-2.70;99.90;;;-2.97;nan;101771.28;5025755;28;20238;-65
2022/12/17 13:48:23;;;;;;;17.05;6.35;;;-2.80;99.90;;;-2.93;nan;101774.69;5013692;28;20578;-66
2022/12/17 13:51:03;;;;;;;10.90;5.05;;;-2.80;99.90;;;-2.88;nan;101775.53;5014199;28;20237;-65
2022/12/17 13:53:33;;;;;;;13.57;6.00;;;-2.80;99.90;;;-2.85;nan;101771.28;5024466;28;20228;-63
2022/12/17 13:56:00;;;;;;;6.80;4.15;;;-2.80;99.90;;;-2.74;nan;101781.50;5026290;28;20225;-66
2022/12/17 13:58:32;;;;;;;1.70;1.55;;;-2.70;99.90;;;-2.75;nan;101778.13;5031674;28;20203;-65
2022/12/17 14:01:11;;;;;;;4.28;3.80;;;-2.70;99.90;;;-2.71;nan;101782.38;5031178;28;20667;-65
2022/12/17 14:03:42;;;;;;;14.75;7.97;;;-2.70;99.90;;;-2.79;nan;101783.22;5032131;28;20210;-65
2022/12/17 14:06:34;;;;;;;15.57;8.35;;;-2.70;99.90;;;-2.98;nan;101789.16;5031406;28;20320;-66
2022/12/17 14:09:03;;;;;;;13.75;6.45;;;-2.70;99.90;;;-2.95;nan;101791.69;5014204;28;20219;-65
2022/12/17 14:14:35;;;;;;;12.35;6.07;;;-2.80;99.90;;;-2.88;nan;101786.63;5029946;28;20681;-66
2022/12/17 14:17:02;;;;;;;19.77;6.70;;;-2.80;99.90;;;-2.93;nan;101782.34;5029937;28;20362;-65
2022/12/17 14:19:32;;;;;;;22.80;10.30;;;-2.80;99.90;;;-3.11;nan;101789.97;5011971;28;20233;-65
2022/12/17 14:22:00;;;;;;;20.77;8.30;;;-2.80;99.90;;;-3.34;nan;101795.00;5018753;28;20274;-65
2022/12/17 14:24:28;;;;;;;20.35;9.43;;;-3.00;99.90;;;-3.22;nan;101792.50;5022238;28;20282;-62
2022/12/17 14:26:58;;;;;;;19.00;8.20;;;-3.00;99.90;;;-3.13;nan;101789.13;5013835;28;20236;-65
2022/12/17 14:29:31;;;;;;;6.18;3.47;;;-3.00;99.90;;;-3.05;nan;101792.53;5027890;28;20225;-64
2022/12/17 14:32:01;;;;;;;15.00;6.22;;;-2.90;99.90;;;-3.13;nan;101793.38;5028684;28;20260;-64
2022/12/17 14:34:40;;;;;;;9.60;5.18;;;-3.00;99.90;;;-3.09;nan;101788.28;5013501;28;20775;-66
2022/12/17 14:37:17;;;;;;;9.07;4.45;;;-3.00;99.90;;;-3.20;nan;101788.25;5038153;28;20208;-65
2022/12/17 14:39:47;;;;;;;8.27;4.03;;;-3.00;99.90;;;-3.10;nan;101799.31;5030762;28;20233;-64
2022/12/17 14:42:24;;;;;;;1.15;1.08;;;-3.00;99.90;;;-3.11;nan;101806.16;5013282;28;20596;-65
2022/12/17 14:45:21;;;;;;;18.08;8.57;;;-3.00;99.90;;;-3.23;nan;101809.53;5038036;28;20201;-64
2022/12/17 14:47:59;;;;;;;18.98;8.35;;;-3.10;99.90;;;-3.40;nan;101811.16;5020348;28;20212;-64
2022/12/17 14:50:35;;;;;;;13.10;6.40;;;-3.10;99.90;;;-3.29;nan;101819.72;5060705;23;20655;-65
2022/12/17 14:53:24;;;;;;;8.93;3.45;;;-3.10;99.90;;;-3.19;nan;101821.44;5030835;28;20262;-65
2022/12/17 14:55:58;;;;;;;19.42;8.85;;;-3.10;99.90;;;-3.20;nan;101819.75;5013635;28;20270;-67
2022/12/17 14:58:26;;;;;;;20.20;9.45;;;-3.10;99.90;;;-3.22;nan;101820.59;5030637;28;20214;-67
2022/12/17 15:01:06;;;;;;;21.33;9.73;;;-3.10;99.90;;;-3.26;nan;101814.59;5030428;28;20230;-67
2022/12/17 15:03:39;;;;;;;23.23;11.07;;;-3.10;99.90;;;-3.19;nan;101824.00;5007774;28;20767;-70
2022/12/17 15:06:10;;;;;;;22.52;11.88;;;-3.10;99.90;;;-3.35;nan;101814.59;5029748;28;20236;-64
2022/12/17 15:08:49;;;;;;;17.63;9.20;;;-3.10;99.90;;;-3.51;nan;101817.91;4998876;28;20203;-66
2022/12/17 15:11:22;;;;;;;21.60;7.55;;;-3.20;99.90;;;-3.33;nan;101819.69;5028955;28;20218;-68
2022/12/17 15:13:49;;;;;;;11.60;5.47;;;-3.20;99.90;;;-3.34;nan;101821.38;5013624;28;20212;-66
2022/12/17 15:16:22;;;;;;;26.60;8.55;;;-3.20;99.90;;;-3.34;nan;101817.97;5021389;28;20205;-66
2022/12/17 15:18:49;;;;;;;18.30;7.72;;;-3.20;99.90;;;-3.32;nan;101824.81;5025561;28;20218;-67
2022/12/17 15:21:17;;;;;;;18.85;8.02;;;-3.10;99.90;;;-3.30;nan;101830.75;5029829;28;20234;-67
2022/12/17 15:23:46;;;;;;;13.38;6.72;;;-3.10;99.90;;;-3.33;nan;101830.75;5021445;28;20213;-68
2022/12/17 15:26:14;;;;;;;15.07;6.25;;;-3.10;99.90;;;-3.33;nan;101833.31;5022234;28;20222;-66
2022/12/17 15:28:42;;;;;;;6.22;4.20;;;-3.10;99.90;;;-3.32;nan;101839.25;5004792;28;20206;-66
2022/12/17 15:31:12;;;;;;;10.55;4.63;;;-3.10;99.90;;;-3.25;nan;101836.75;5014434;28;20268;-65
2022/12/17 15:33:40;;;;;;;8.90;5.07;;;-3.10;99.90;;;-3.33;nan;101845.22;5018104;28;20218;-69
2022/12/17 15:36:09;;;;;;;14.52;6.70;;;-3.20;99.90;;;-3.27;nan;101843.53;4997211;28;20259;-65
2022/12/17 15:38:37;;;;;;;12.60;6.95;;;-3.10;99.90;;;-3.52;nan;101848.53;5007263;28;20579;-66
2022/12/17 15:43:09;;;;;;;14.85;6.20;;;-3.20;99.90;;;-3.55;nan;101851.91;5012983;28;20234;-67
2022/12/17 15:43:52;;;;;;;14.35;6.68;;;-3.30;99.90;;;-3.55;nan;101854.47;4987672;28;20209;-66
2022/12/17 15:46:19;;;;;;;18.25;9.05;;;-3.30;99.90;;;-3.57;nan;101851.06;5022708;28;20233;-65
2022/12/17 15:48:46;;;;;;;19.27;6.68;;;-3.30;99.90;;;-3.70;nan;101861.19;5013617;28;20285;-69
2022/12/17 15:51:16;;;;;;;20.27;9.02;;;-3.40;99.90;;;-3.69;nan;101858.66;5006670;28;20300;-66
2022/12/17 15:53:46;;;;;;;25.03;11.40;;;-3.40;99.90;;;-3.63;nan;101857.84;5008587;28;20759;-68
2022/12/17 15:56:25;;;;;;;18.98;9.07;;;-3.30;99.90;;;-3.49;nan;101862.16;5025364;28;20754;-67
2022/12/17 15:58:55;;;;;;;3.08;2.53;;;-3.30;99.90;;;-3.29;nan;101845.25;5023336;28;21001;-67
2022/12/17 16:01:22;;;;;;;20.98;6.40;;;-3.30;99.90;;;-3.53;nan;101847.69;5022764;28;20226;-68
2022/12/17 16:03:49;;;;;;;5.22;3.50;;;-3.30;99.90;;;-3.47;nan;101850.25;5019930;28;20277;-68
2022/12/17 16:06:16;;;;;;;9.68;5.18;;;-3.30;99.90;;;-3.51;nan;101851.09;5033662;28;20233;-68
2022/12/17 16:08:43;;;;;;;6.43;2.83;;;-3.30;99.90;;;-3.52;nan;101846.84;5027706;28;20211;-67
2022/12/17 16:11:14;;;;;;;14.45;5.97;;;-3.30;99.90;;;-3.51;nan;101843.44;5033567;28;20706;-64
2022/12/17 16:13:42;;;;;;;10.77;5.45;;;-3.30;99.90;;;-3.52;nan;101851.94;5000839;28;20270;-62
2022/12/17 16:16:09;;;;;;;15.98;6.90;;;-3.30;99.90;;;-3.60;nan;101842.56;5015830;28;20280;-65
2022/12/17 16:18:37;;;;;;;13.80;7.30;;;-3.40;99.90;;;-3.51;nan;101842.56;5027786;28;20213;-66
2022/12/17 16:21:07;;;;;;;9.13;5.55;;;-3.30;99.90;;;-3.47;nan;101849.44;5030378;28;20743;-65
2022/12/17 16:23:35;;;;;;;20.70;9.07;;;-3.30;99.90;;;-3.53;nan;101852.78;5029865;28;20259;-65
2022/12/17 16:26:05;;;;;;;12.98;5.00;;;-3.30;99.90;;;-3.72;nan;101862.88;5021014;28;20258;-65
2022/12/17 16:28:33;;;;;;;21.13;9.02;;;-3.40;99.90;;;-3.74;nan;101850.13;5027282;28;20205;-64
2022/12/17 16:31:07;;;;;;;9.52;4.45;;;-3.40;99.90;;;-3.81;nan;101856.03;5032176;28;20280;-63
2022/12/17 16:33:38;;;;;;;11.98;6.05;;;-3.50;99.90;;;-3.78;nan;101856.06;5023001;28;20226;-65
2022/12/17 16:36:08;;;;;;;1.15;1.05;;;-3.50;99.90;;;-3.74;nan;101856.91;5011323;28;20225;-65
2022/12/17 16:38:35;;;;;;;16.27;6.45;;;-3.50;99.90;;;-3.75;nan;101858.63;5016123;28;20209;-65
2022/12/17 16:41:02;;;;;;;19.88;9.15;;;-3.50;99.90;;;-3.82;nan;101863.66;5021577;28;20233;-66
2022/12/17 16:43:33;;;;;;;20.13;9.40;;;-3.50;99.90;;;-3.81;nan;101852.66;5026692;28;20228;-65
2022/12/17 16:46:00;;;;;;;19.58;8.80;;;-3.60;99.90;;;-4.03;nan;101851.66;5011219;28;20294;-64
2022/12/17 16:48:27;;;;;;;18.38;7.10;;;-3.60;99.90;;;-4.04;nan;101855.03;5027783;28;20208;-65
2022/12/17 16:50:54;;;;;;;10.63;4.55;;;-3.70;99.90;;;-4.10;nan;101866.03;5028206;28;20237;-65
2022/12/17 16:53:21;;;;;;;16.00;7.50;;;-3.70;99.90;;;-4.00;nan;101872.03;5015464;28;20218;-65
2022/12/17 16:55:48;;;;;;;17.70;7.63;;;-3.70;99.90;;;-3.90;nan;101863.63;5021686;28;20593;-66
2022/12/17 16:58:16;;;;;;;9.63;5.75;;;-3.70;99.90;;;-3.82;nan;101871.31;5021183;28;20611;-64
2022/12/17 17:00:45;;;;;;;6.70;3.58;;;-3.70;99.90;;;-3.87;nan;101876.41;5032921;28;20765;-65
2022/12/17 17:03:12;;;;;;;8.38;4.10;;;-3.70;99.90;;;-3.75;nan;101876.50;5010464;28;20707;-66
2022/12/17 17:05:39;;;;;;;18.40;5.97;;;-3.60;99.90;;;-3.72;nan;101881.59;5015903;28;20236;-62
2022/12/17 17:08:06;;;;;;;10.98;5.85;;;-3.60;99.90;;;-3.65;nan;101883.34;4995830;28;20278;-65
2022/12/17 17:10:35;;;;;;;20.85;9.35;;;-3.60;99.90;;;-3.81;nan;101885.78;5032039;28;20235;-65
2022/12/17 17:13:03;;;;;;;5.25;2.55;;;-3.60;99.90;;;-3.85;nan;101879.81;5023072;28;20204;-65
2022/12/17 17:15:30;;;;;;;13.18;6.03;;;-3.70;99.90;;;-3.94;nan;101883.16;5032730;28;20246;-64
2022/12/17 17:17:58;;;;;;;19.10;7.82;;;-3.70;99.90;;;-3.94;nan;101888.25;5023024;28;20222;-65
2022/12/17 17:20:30;;;;;;;16.42;6.93;;;-3.70;99.90;;;-3.83;nan;101890.03;5032527;28;20266;-64
2022/12/17 17:22:58;;;;;;;12.80;6.88;;;-3.60;99.90;;;-3.95;nan;101886.56;5028250;28;20255;-64
2022/12/17 17:25:25;;;;;;;18.65;8.98;;;-3.70;99.90;;;-4.20;nan;101889.78;5024979;28;20218;-64
2022/12/17 17:28:09;;;;;;;17.33;7.35;;;-3.70;99.90;;;-4.29;nan;101881.19;5030230;28;20297;-64
2022/12/17 17:30:36;;;;;;;18.10;8.70;;;-3.80;99.90;;;-4.32;nan;101882.00;5032146;28;20726;-66
2022/12/17 17:33:03;;;;;;;20.45;9.10;;;-3.80;99.90;;;-4.20;nan;101881.25;5018923;28;20217;-64
2022/12/17 17:35:30;;;;;;;21.05;8.18;;;-3.90;99.90;;;-4.24;nan;101889.72;5032379;28;20204;-67
2022/12/17 17:37:57;;;;;;;20.60;8.75;;;-3.90;99.90;;;-4.18;nan;101897.41;5007273;28;20674;-67
2022/12/17 17:40:24;;;;;;;20.85;9.13;;;-3.90;99.90;;;-4.10;nan;101895.78;5025099;28;20239;-67
2022/12/17 17:42:51;;;;;;;11.60;6.32;;;-3.90;99.90;;;-4.26;nan;101904.16;5021112;28;20227;-67
2022/12/17 17:45:18;;;;;;;7.30;4.15;;;-3.90;99.90;;;-4.03;nan;101902.63;5032199;28;20658;-65
2022/12/17 17:47:45;;;;;;;18.85;8.52;;;-3.80;99.90;;;-3.93;nan;101909.50;5027369;28;20224;-63
2022/12/17 17:50:12;;;;;;;5.03;2.55;;;-3.80;99.90;;;-3.88;nan;101910.41;5031296;28;20716;-65
2022/12/17 17:52:39;;;;;;;14.90;7.15;;;-3.70;99.90;;;-4.14;nan;101919.53;4980004;28;20213;-64
2022/12/17 17:55:06;;;;;;;17.42;8.45;;;-3.80;99.90;;;-4.14;nan;101917.84;5019924;28;20219;-64
2022/12/17 17:57:33;;;;;;;9.43;4.82;;;-3.80;99.90;;;-4.05;nan;101919.63;5013826;28;20213;-65
2022/12/17 18:00:01;;;;;;;15.38;6.40;;;-3.80;99.90;;;-4.10;nan;101917.03;5031601;28;20228;-65
2022/12/17 18:02:28;;;;;;;5.97;4.10;;;-3.80;99.90;;;-3.99;nan;101922.22;5017151;28;20209;-65
2022/12/17 18:04:55;;;;;;;17.80;7.70;;;-3.80;99.90;;;-4.06;nan;101921.31;5031554;28;20273;-64
2022/12/17 18:07:22;;;;;;;10.98;4.60;;;-3.80;99.90;;;-4.04;nan;101923.84;5028944;28;20234;-65
2022/12/17 18:09:52;;;;;;;10.82;5.60;;;-3.80;99.90;;;-3.92;nan;101931.63;5031023;28;20268;-66
2022/12/17 18:15:05;;;;;;;13.45;6.05;;;-3.80;99.90;;;-4.16;nan;101928.88;5031079;28;20672;-64
2022/12/17 18:17:46;;;;;;;17.60;6.18;;;-3.90;99.90;;;-4.22;nan;101937.31;5025755;28;20206;-65
2022/12/17 18:20:14;;;;;;;17.90;7.35;;;-3.90;99.90;;;-3.94;nan;101938.41;5013545;28;20606;-64
2022/12/17 18:22:42;;;;;;;18.50;9.85;;;-3.80;99.90;;;-4.02;nan;101943.44;5025493;28;20677;-65
2022/12/17 18:25:09;;;;;;;12.68;7.13;;;-3.80;99.90;;;-4.01;nan;101937.50;5019470;28;20323;-65
2022/12/17 18:27:37;;;;;;;24.58;9.63;;;-3.80;99.90;;;-4.25;nan;101938.97;5003381;28;20221;-66
2022/12/17 18:30:04;;;;;;;24.63;9.95;;;-3.90;99.90;;;-4.20;nan;101940.75;5028770;28;20231;-64
2022/12/17 18:32:31;;;;;;;17.42;7.72;;;-3.90;99.90;;;-4.06;nan;101938.28;5029421;28;20208;-65
2022/12/17 18:34:58;;;;;;;19.55;7.50;;;-3.90;99.90;;;-3.97;nan;101928.16;5028136;28;20208;-67
2022/12/17 18:37:25;;;;;;;21.52;8.50;;;-3.80;99.90;;;-3.88;nan;101928.25;5028287;28;20215;-63
2022/12/17 18:39:52;;;;;;;16.35;6.93;;;-3.80;99.90;;;-3.95;nan;101937.53;5031106;28;20231;-66
2022/12/17 18:45:06;;;;;;;1.83;1.55;;;-3.80;99.90;;;-3.84;nan;101929.97;5031457;28;20664;-65
2022/12/17 18:47:33;;;;;;;13.55;6.20;;;-3.70;99.90;;;-4.14;nan;101924.63;5027419;28;20232;-66
2022/12/17 18:49:59;;;;;;;18.17;8.57;;;-3.80;99.90;;;-3.94;nan;101923.94;5010369;28;20248;-65
2022/12/17 18:52:26;;;;;;;25.33;9.15;;;-3.80;99.90;;;-4.03;nan;101926.44;5009927;28;20208;-67
2022/12/17 18:54:53;;;;;;;15.13;7.60;;;-3.80;99.90;;;-4.03;nan;101931.53;5003918;28;20204;-65
2022/12/17 18:57:20;;;;;;;15.27;6.22;;;-3.80;99.90;;;-4.02;nan;101932.38;5003822;28;20205;-66
2022/12/17 18:59:48;;;;;;;19.90;9.45;;;-3.80;99.90;;;-3.95;nan;101936.69;5009299;28;20212;-65
2022/12/17 19:02:15;;;;;;;18.75;8.75;;;-3.80;99.90;;;-4.09;nan;101941.66;4998979;28;20212;-66
2022/12/17 19:04:42;;;;;;;6.80;3.50;;;-3.80;99.90;;;-4.07;nan;101946.78;5006473;28;20206;-65
2022/12/17 19:07:09;;;;;;;6.63;2.88;;;-3.80;99.90;;;-4.00;nan;101948.53;5010152;28;20225;-67
2022/12/17 19:09:38;;;;;;;19.55;8.50;;;-3.80;99.90;;;-4.04;nan;101941.69;4990812;28;20206;-64
2022/12/17 19:12:08;;;;;;;11.15;5.85;;;-3.90;99.90;;;-4.20;nan;101944.97;5009125;28;20206;-67
2022/12/17 19:14:35;;;;;;;2.17;2.08;;;-3.90;99.90;;;-4.06;nan;101943.38;5004030;28;20660;-65
2022/12/17 19:17:04;;;;;;;5.53;4.47;;;-3.90;99.90;;;-3.95;nan;101946.88;5006500;28;20209;-66
2022/12/17 19:19:32;;;;;;;8.98;3.97;;;-3.90;99.90;;;-3.98;nan;101944.28;4980191;28;20238;-67
2022/12/17 19:21:59;;;;;;;7.65;4.05;;;-3.80;99.90;;;-4.04;nan;101946.81;4990673;28;20214;-65
2022/12/17 19:24:26;;;;;;;12.80;6.50;;;-3.80;99.90;;;-3.94;nan;101946.06;4984692;28;20229;-66
2022/12/17 19:26:54;;;;;;;14.90;6.63;;;-3.80;99.90;;;-3.85;nan;101948.66;5013394;28;20235;-65
2022/12/17 19:29:21;;;;;;;12.48;6.22;;;-3.70;99.90;;;-3.97;nan;101943.47;5002950;28;20639;-66
2022/12/17 19:31:48;;;;;;;15.23;7.10;;;-3.80;99.90;;;-3.99;nan;101946.00;5003937;28;20264;-66
2022/12/17 19:34:17;;;;;;;14.68;7.15;;;-3.80;99.90;;;-4.14;nan;101952.66;5026470;28;20214;-66
2022/12/17 19:36:45;;;;;;;10.18;5.00;;;-3.80;99.90;;;-4.16;nan;101947.56;4999312;28;20209;-66
2022/12/17 19:39:18;;;;;;;7.88;3.03;;;-3.80;99.90;;;-4.05;nan;101942.56;5004865;28;20234;-67
2022/12/17 19:41:49;;;;;;;11.63;5.90;;;-3.80;99.90;;;-3.96;nan;101952.81;4998284;28;20224;-66
2022/12/17 19:44:19;;;;;;;24.85;10.23;;;-3.80;99.90;;;-4.03;nan;101958.72;5003966;28;20265;-66
2022/12/17 19:46:46;;;;;;;13.65;6.85;;;-3.80;99.90;;;-4.07;nan;101947.63;4998332;28;20211;-67
2022/12/17 19:49:15;;;;;;;19.55;8.50;;;-3.80;99.90;;;-4.06;nan;101954.44;5014457;28;20648;-65
2022/12/17 19:51:43;;;;;;;9.10;4.90;;;-3.80;99.90;;;-3.97;nan;101949.44;5004880;28;20233;-64
2022/12/17 19:54:13;;;;;;;19.73;7.85;;;-3.80;99.90;;;-3.89;nan;101951.16;5015125;28;20209;-66
2022/12/17 19:56:43;;;;;;;14.90;6.80;;;-3.80;99.90;;;-3.85;nan;101943.56;5015327;28;20213;-66
2022/12/17 19:59:11;;;;;;;14.07;6.32;;;-3.80;99.90;;;-3.83;nan;101948.69;5006949;28;20524;-65
2022/12/17 20:01:42;;;;;;;17.48;7.90;;;-3.70;99.90;;;-3.81;nan;101944.44;5014795;28;20229;-65
2022/12/17 20:04:15;;;;;;;17.42;8.00;;;-3.70;99.90;;;-3.84;nan;101937.63;5014548;28;20216;-65
2022/12/17 20:06:43;;;;;;;22.13;10.23;;;-3.70;99.90;;;-3.91;nan;101933.31;5015059;28;20203;-66
2022/12/17 20:09:12;;;;;;;26.52;10.20;;;-3.70;99.90;;;-4.12;nan;101940.78;5002868;28;20596;-65
2022/12/17 20:11:39;;;;;;;16.50;7.63;;;-3.80;99.90;;;-4.17;nan;101950.94;5010067;28;20229;-66
2022/12/17 20:14:15;;;;;;;11.85;6.53;;;-3.90;99.90;;;-3.99;nan;101946.00;5014338;28;20239;-65
2022/12/17 20:16:49;;;;;;;16.08;5.20;;;-3.80;99.90;;;-3.95;nan;101944.34;5012713;28;20207;-66
2022/12/17 20:19:29;;;;;;;14.32;6.47;;;-3.80;99.90;;;-3.87;nan;101947.78;5006778;28;20600;-65
2022/12/17 20:21:58;;;;;;;9.85;5.75;;;-3.80;99.90;;;-3.95;nan;101950.28;5002401;28;20429;-66
2022/12/17 20:24:25;;;;;;;5.43;3.40;;;-3.70;99.90;;;-3.90;nan;101950.34;4996960;28;20209;-66
2022/12/17 20:26:57;;;;;;;0.80;0.80;;;-3.70;99.90;;;-3.85;nan;101955.47;5010976;28;20224;-66
2022/12/17 20:29:24;;;;;;;12.85;6.47;;;-3.70;99.90;;;-4.00;nan;101963.81;4992654;28;20218;-65
2022/12/17 20:31:52;;;;;;;9.73;5.30;;;-3.80;99.90;;;-3.99;nan;101968.97;5013281;28;20248;-65
2022/12/17 20:34:20;;;;;;;5.43;3.35;;;-3.80;99.90;;;-4.10;nan;101967.16;5023524;28;20217;-65
2022/12/17 20:36:47;;;;;;;16.10;7.50;;;-3.80;99.90;;;-3.95;nan;101968.16;5020489;28;20215;-65
2022/12/17 20:39:15;;;;;;;17.95;7.82;;;-3.80;99.90;;;-3.81;nan;101975.88;5016274;28;20209;-65
2022/12/17 20:41:43;;;;;;;14.77;6.68;;;-3.70;99.90;;;-3.87;nan;101975.84;4996964;28;20294;-66
2022/12/17 20:44:13;;;;;;;5.22;3.65;;;-3.70;99.90;;;-3.81;nan;101969.94;5014406;28;20216;-66
2022/12/17 20:46:40;;;;;;;10.07;4.97;;;-3.70;99.90;;;-3.87;nan;101959.69;4994947;28;20207;-64
2022/12/17 20:49:09;;;;;;;15.52;7.18;;;-3.70;99.90;;;-3.83;nan;101954.63;4994225;28;20238;-64
2022/12/17 20:51:37;;;;;;;20.90;8.38;;;-3.60;99.90;;;-3.79;nan;101952.97;5026510;23;20355;-64
2022/12/17 20:54:04;;;;;;;14.07;6.10;;;-3.60;99.90;;;-3.92;nan;101950.31;4996719;28;20704;-64
2022/12/17 20:56:33;;;;;;;14.43;6.00;;;-3.70;99.90;;;-3.83;nan;101957.16;5032822;28;20220;-63
2022/12/17 20:59:05;;;;;;;19.23;8.32;;;-3.70;99.90;;;-3.84;nan;101967.38;5015380;28;20217;-63
2022/12/17 21:01:34;;;;;;;14.02;7.78;;;-3.70;99.90;;;-4.01;nan;101977.44;5014152;28;20741;-64
2022/12/17 21:04:05;;;;;;;17.90;8.95;;;-3.70;99.90;;;-3.97;nan;101974.94;5021822;28;20284;-64
2022/12/17 21:06:39;;;;;;;21.90;8.77;;;-3.70;99.90;;;-4.08;nan;101975.66;5032688;28;20257;-64
2022/12/17 21:09:06;;;;;;;11.90;5.47;;;-3.70;99.90;;;-3.98;nan;101982.53;5032219;28;20236;-64
2022/12/17 21:11:36;;;;;;;16.25;6.38;;;-3.80;99.90;;;-4.22;nan;101983.19;5032368;28;20291;-64
2022/12/17 21:14:06;;;;;;;20.88;8.43;;;-3.80;99.90;;;-4.31;nan;102002.63;5032739;28;20207;-64
2022/12/17 21:16:34;;;;;;;17.23;7.13;;;-3.90;99.90;;;-4.20;nan;102001.03;5032167;28;20205;-64
2022/12/17 21:19:03;;;;;;;26.70;11.10;;;-3.90;99.90;;;-4.11;nan;101998.59;5027003;28;20633;-64
2022/12/17 21:21:34;;;;;;;20.27;8.35;;;-3.90;99.90;;;-4.26;nan;101985.69;5029038;28;20232;-64
2022/12/17 21:24:01;;;;;;;17.80;6.82;;;-3.90;99.90;;;-4.13;nan;101982.44;5032852;28;20214;-64
2022/12/17 21:26:35;;;;;;;15.65;7.07;;;-3.90;99.90;;;-4.10;nan;101977.34;5014944;28;20207;-64
2022/12/17 21:29:05;;;;;;;17.73;7.93;;;-3.90;99.90;;;-4.11;nan;101965.44;5011404;28;20280;-66
2022/12/17 21:31:36;;;;;;;25.73;11.25;;;-3.90;99.90;;;-4.03;nan;101966.38;5012870;28;20796;-64
2022/12/17 21:34:07;;;;;;;23.33;9.55;;;-3.80;99.90;;;-4.04;nan;101969.75;5032046;28;20207;-64
2022/12/17 21:36:34;;;;;;;23.65;9.05;;;-3.80;99.90;;;-4.25;nan;101979.75;5030769;28;20263;-64
2022/12/17 21:39:03;;;;;;;4.43;3.10;;;-3.80;99.90;;;-4.01;nan;101983.41;5014142;28;20239;-66
2022/12/17 21:41:38;;;;;;;22.90;10.20;;;-3.80;99.90;;;-4.04;nan;101982.50;5031406;28;20722;-65
2022/12/17 21:44:12;;;;;;;11.07;6.05;;;-3.80;99.90;;;-4.19;nan;101987.44;5015278;28;20279;-66
2022/12/17 21:46:39;;;;;;;18.35;7.28;;;-3.90;99.90;;;-4.17;nan;101991.72;5031738;28;20211;-66
2022/12/17 21:49:06;;;;;;;14.13;5.70;;;-3.80;99.90;;;-4.22;nan;101992.53;5031303;28;20718;-64
2022/12/17 21:51:33;;;;;;;26.30;9.32;;;-3.90;99.90;;;-4.16;nan;101992.59;5030862;28;20238;-65
2022/12/17 21:54:02;;;;;;;26.33;9.73;;;-3.90;99.90;;;-4.18;nan;101994.25;5031880;28;20212;-65
2022/12/17 21:56:35;;;;;;;22.50;9.23;;;-3.90;99.90;;;-4.12;nan;101994.31;5031940;28;20271;-64
2022/12/17 21:59:02;;;;;;;19.05;7.63;;;-3.90;99.90;;;-4.19;nan;101987.44;5030816;28;20670;-65
2022/12/17 22:01:32;;;;;;;14.90;6.72;;;-3.90;99.90;;;-4.39;nan;101986.41;5031598;28;20661;-64
2022/12/17 22:04:03;;;;;;;16.40;7.88;;;-4.00;99.90;;;-4.34;nan;101977.09;5014046;28;20223;-65
2022/12/17 22:06:32;;;;;;;20.38;8.90;;;-4.00;99.90;;;-4.30;nan;101978.88;5031320;28;20208;-65
2022/12/17 22:09:05;;;;;;;6.32;3.33;;;-4.00;99.90;;;-4.13;nan;101984.97;5031536;28;20730;-64
2022/12/17 22:11:47;;;;;;;28.23;11.45;;;-4.00;99.90;;;-4.10;nan;101985.00;5032111;28;20239;-65
2022/12/17 22:14:14;;;;;;;19.17;8.93;;;-3.90;99.90;;;-4.02;nan;101980.81;5013888;28;20680;-65
2022/12/17 22:16:47;;;;;;;21.67;8.50;;;-3.90;99.90;;;-4.21;nan;101981.47;5031713;28;20205;-65
2022/12/17 22:19:21;;;;;;;13.55;6.72;;;-3.90;99.90;;;-3.99;nan;101991.03;5031189;28;20231;-65
2022/12/17 22:21:50;;;;;;;11.07;4.80;;;-3.80;99.90;;;-4.01;nan;101990.19;5031183;28;20231;-65
2022/12/17 22:24:23;;;;;;;18.85;9.27;;;-3.80;99.90;;;-4.09;nan;101995.19;5031397;28;20202;-66
2022/12/17 22:26:50;;;;;;;14.18;6.13;;;-3.80;99.90;;;-4.17;nan;101990.84;5018793;28;20215;-65
2022/12/17 22:32:58;;;;;;;10.98;4.90;;;-3.90;99.90;;;-4.11;nan;101989.22;5030901;28;20246;-65
2022/12/17 22:34:48;;;;;;;8.52;5.20;;;-3.90;99.90;;;-4.07;nan;101992.69;5031140;28;20206;-65
2022/12/17 22:37:35;;;;;;;23.90;10.90;;;-3.90;99.90;;;-4.01;nan;101988.50;5031450;28;20255;-64
2022/12/17 22:40:22;;;;;;;16.92;7.30;;;-3.80;99.90;;;-4.02;nan;101999.50;5031243;28;20635;-64
2022/12/17 22:43:28;;;;;;;2.90;1.45;;;-3.80;99.90;;;-3.91;nan;101994.50;5030760;28;20286;-65
2022/12/17 22:46:15;;;;;;;20.52;9.15;;;-3.80;99.90;;;-4.02;nan;101999.50;5028986;28;20231;-64
2022/12/17 22:48:42;;;;;;;26.95;11.60;;;-3.70;99.90;;;-4.07;nan;102000.31;5025916;28;20221;-64
2022/12/17 22:51:10;;;;;;;21.58;9.02;;;-3.80;99.90;;;-4.17;nan;101998.50;5009772;28;20236;-64
2022/12/17 22:53:40;;;;;;;24.48;10.82;;;-3.80;99.90;;;-4.27;nan;101997.56;5019765;28;20263;-64
2022/12/17 22:56:07;;;;;;;14.73;6.88;;;-3.90;99.90;;;-4.05;nan;101998.66;5030194;28;20668;-64
2022/12/17 22:58:46;;;;;;;25.35;10.20;;;-3.80;99.90;;;-4.05;nan;101998.66;5028092;28;20218;-65
2022/12/17 23:01:13;;;;;;;24.25;9.05;;;-3.80;99.90;;;-4.13;nan;101992.63;5025546;28;20619;-65
2022/12/17 23:03:45;;;;;;;26.70;11.70;;;-3.80;99.90;;;-4.26;nan;101990.78;5033384;28;20215;-65
2022/12/17 23:06:16;;;;;;;17.52;8.25;;;-3.90;99.90;;;-4.32;nan;101990.75;5034642;28;20208;-63
2022/12/17 23:08:44;;;;;;;11.73;5.53;;;-3.90;99.90;;;-4.12;nan;101995.19;5034749;28;20216;-63
2022/12/17 23:11:15;;;;;;;21.27;9.15;;;-3.90;99.90;;;-4.06;nan;101991.81;5034929;28;20324;-64
2022/12/17 23:13:42;;;;;;;15.45;7.80;;;-3.90;99.90;;;-4.12;nan;101994.31;5034934;28;20704;-64
2022/12/17 23:16:12;;;;;;;19.95;8.40;;;-3.80;99.90;;;-4.03;nan;102000.38;5016018;28;20203;-64
2022/12/17 23:18:40;;;;;;;22.23;9.68;;;-3.90;99.90;;;-4.14;nan;102006.19;5032196;28;20719;-64
2022/12/17 23:21:22;;;;;;;21.95;9.25;;;-3.90;99.90;;;-4.18;nan;102007.88;5030417;28;20232;-64
2022/12/17 23:23:54;;;;;;;10.98;4.47;;;-3.90;99.90;;;-4.02;nan;102011.41;5032944;28;20242;-64
2022/12/17 23:26:28;;;;;;;30.02;11.05;;;-3.90;99.90;;;-4.03;nan;102008.03;5034416;28;20211;-64
2022/12/17 23:28:58;;;;;;;12.90;6.60;;;-3.90;99.90;;;-4.23;nan;102006.09;5033128;28;20674;-64
2022/12/17 23:31:28;;;;;;;19.33;8.73;;;-3.90;99.90;;;-4.12;nan;102007.06;5032274;28;20219;-63
2022/12/17 23:33:55;;;;;;;13.32;6.60;;;-3.90;99.90;;;-4.19;nan;102003.59;5031837;28;20712;-64
2022/12/17 23:36:24;;;;;;;9.40;5.88;;;-3.90;99.90;;;-4.17;nan;102004.47;5032936;28;20202;-65
2022/12/17 23:38:55;;;;;;;8.55;2.60;;;-3.90;99.90;;;-4.19;nan;102002.72;5033625;28;20744;-64
2022/12/17 23:41:26;;;;;;;11.63;6.20;;;-4.00;99.90;;;-4.02;nan;101996.97;5013896;28;20277;-66
2022/12/17 23:43:53;;;;;;;18.45;8.25;;;-3.90;99.90;;;-4.10;nan;102003.69;5028948;28;20265;-64
2022/12/17 23:46:22;;;;;;;16.42;7.75;;;-3.90;99.90;;;-4.15;nan;101999.38;5032604;28;20204;-64
2022/12/17 23:48:50;;;;;;;18.65;8.60;;;-3.90;99.90;;;-4.25;nan;102000.13;5032803;28;20227;-63
2022/12/17 23:51:21;;;;;;;18.50;8.13;;;-3.90;99.90;;;-4.15;nan;102001.91;5015008;28;20235;-63
2022/12/17 23:53:48;;;;;;;28.15;9.32;;;-3.90;99.90;;;-4.10;nan;102008.78;5033319;28;20296;-63